sensor_id;sensor_type;location;lat;lon;timestamp;pressure;altitude;pressure_sealevel;temperature;humidity
22000;BME280;11164;48.818;2.322;2024-01-27T00:00:22;102628.50;;;10.00;35.52
22000;BME280;11164;48.818;2.322;2024-01-27T00:02:47;102634.19;;;9.97;35.59
22000;BME280;11164;48.818;2.322;2024-01-27T00:05:13;102632.78;;;9.93;35.69
22000;BME280;11164;48.818;2.322;2024-01-27T00:07:38;102637.59;;;9.80;35.69
22000;BME280;11164;48.818;2.322;2024-01-27T00:10:04;102633.09;;;9.70;36.02
22000;BME280;11164;48.818;2.322;2024-01-27T00:12:29;102630.38;;;9.61;36.18
22000;BME280;11164;48.818;2.322;2024-01-27T00:14:55;102632.53;;;9.57;36.19
22000;BME280;11164;48.818;2.322;2024-01-27T00:17:20;102629.28;;;9.63;36.16
22000;BME280;11164;48.818;2.322;2024-01-27T00:19:51;102631.50;;;9.68;35.88
22000;BME280;11164;48.818;2.322;2024-01-27T00:22:16;102640.63;;;9.77;35.79
22000;BME280;11164;48.818;2.322;2024-01-27T00:24:42;102633.09;;;9.70;35.81
22000;BME280;11164;48.818;2.322;2024-01-27T00:27:07;102648.09;;;9.83;35.70
22000;BME280;11164;48.818;2.322;2024-01-27T00:29:33;102643.41;;;9.85;35.77
22000;BME280;11164;48.818;2.322;2024-01-27T00:31:58;102645.25;;;9.74;35.82
22000;BME280;11164;48.818;2.322;2024-01-27T00:34:23;102653.78;;;9.80;36.03
22000;BME280;11164;48.818;2.322;2024-01-27T00:36:50;102649.53;;;9.77;35.88
22000;BME280;11164;48.818;2.322;2024-01-27T00:39:15;102649.53;;;9.77;35.91
22000;BME280;11164;48.818;2.322;2024-01-27T00:41:41;102642.72;;;9.73;36.09
22000;BME280;11164;48.818;2.322;2024-01-27T00:44:07;102638.06;;;9.75;35.92
22000;BME280;11164;48.818;2.322;2024-01-27T00:46:32;102641.03;;;9.62;36.12
22000;BME280;11164;48.818;2.322;2024-01-27T00:48:58;102624.31;;;9.49;36.22
22000;BME280;11164;48.818;2.322;2024-01-27T00:51:23;102638.88;;;9.36;36.34
22000;BME280;11164;48.818;2.322;2024-01-27T00:53:48;102629.13;;;9.35;36.45
22000;BME280;11164;48.818;2.322;2024-01-27T00:56:14;102635.66;;;9.52;36.25
22000;BME280;11164;48.818;2.322;2024-01-27T00:58:39;102643.00;;;9.60;36.14
22000;BME280;11164;48.818;2.322;2024-01-27T01:01:05;102636.38;;;9.54;36.22
22000;BME280;11164;48.818;2.322;2024-01-27T01:03:30;102640.75;;;9.46;36.56
22000;BME280;11164;48.818;2.322;2024-01-27T01:05:55;102623.28;;;9.40;36.57
22000;BME280;11164;48.818;2.322;2024-01-27T01:08:20;102629.09;;;9.45;36.30
22000;BME280;11164;48.818;2.322;2024-01-27T01:10:46;102627.72;;;9.51;36.27
22000;BME280;11164;48.818;2.322;2024-01-27T01:13:11;102633.22;;;9.59;36.27
22000;BME280;11164;48.818;2.322;2024-01-27T01:18:58;102617.78;;;9.42;36.52
22000;BME280;11164;48.818;2.322;2024-01-27T01:21:24;102611.94;;;9.27;36.81
22000;BME280;11164;48.818;2.322;2024-01-27T01:23:50;102611.81;;;9.28;36.59
22000;BME280;11164;48.818;2.322;2024-01-27T01:26:15;102614.50;;;9.28;36.68
22000;BME280;11164;48.818;2.322;2024-01-27T01:28:40;102607.97;;;9.31;36.57
22000;BME280;11164;48.818;2.322;2024-01-27T01:31:06;102578.66;;;9.18;36.49
22000;BME280;11164;48.818;2.322;2024-01-27T01:33:33;102608.69;;;9.33;36.55
22000;BME280;11164;48.818;2.322;2024-01-27T01:35:58;102608.41;;;9.26;36.61
22000;BME280;11164;48.818;2.322;2024-01-27T01:38:23;102609.09;;;9.18;36.75
22000;BME280;11164;48.818;2.322;2024-01-27T01:40:49;102608.53;;;9.15;36.89
22000;BME280;11164;48.818;2.322;2024-01-27T01:43:15;102610.50;;;9.23;36.94
22000;BME280;11164;48.818;2.322;2024-01-27T01:45:40;102601.19;;;9.27;36.99
22000;BME280;11164;48.818;2.322;2024-01-27T01:48:07;102597.66;;;9.26;36.72
22000;BME280;11164;48.818;2.322;2024-01-27T01:50:32;102603.19;;;9.34;36.62
22000;BME280;11164;48.818;2.322;2024-01-27T01:52:58;102604.19;;;9.33;36.79
22000;BME280;11164;48.818;2.322;2024-01-27T01:55:23;102601.94;;;9.39;36.69
22000;BME280;11164;48.818;2.322;2024-01-27T01:57:49;102609.28;;;9.36;37.02
22000;BME280;11164;48.818;2.322;2024-01-27T02:00:16;102576.78;;;9.18;36.72
22000;BME280;11164;48.818;2.322;2024-01-27T02:02:45;102600.88;;;9.20;37.15
22000;BME280;11164;48.818;2.322;2024-01-27T02:05:13;102615.06;;;9.12;37.34
22000;BME280;11164;48.818;2.322;2024-01-27T02:07:39;102625.09;;;9.00;37.32
22000;BME280;11164;48.818;2.322;2024-01-27T02:10:06;102623.50;;;8.88;37.46
22000;BME280;11164;48.818;2.322;2024-01-27T02:12:37;102629.84;;;8.87;37.37
22000;BME280;11164;48.818;2.322;2024-01-27T02:15:03;102606.50;;;8.97;37.62
22000;BME280;11164;48.818;2.322;2024-01-27T02:17:29;102621.69;;;9.08;37.35
22000;BME280;11164;48.818;2.322;2024-01-27T02:19:54;102606.09;;;9.12;37.30
22000;BME280;11164;48.818;2.322;2024-01-27T02:22:19;102608.63;;;8.94;37.61
22000;BME280;11164;48.818;2.322;2024-01-27T02:24:45;102606.03;;;8.82;37.77
22000;BME280;11164;48.818;2.322;2024-01-27T02:27:12;102609.03;;;8.79;37.88
22000;BME280;11164;48.818;2.322;2024-01-27T02:29:37;102597.00;;;8.84;37.85
22000;BME280;11164;48.818;2.322;2024-01-27T02:32:03;102597.16;;;8.92;37.51
22000;BME280;11164;48.818;2.322;2024-01-27T02:34:28;102598.00;;;8.92;37.57
22000;BME280;11164;48.818;2.322;2024-01-27T02:36:53;102594.13;;;8.75;37.89
22000;BME280;11164;48.818;2.322;2024-01-27T02:39:18;102593.75;;;8.80;37.90
22000;BME280;11164;48.818;2.322;2024-01-27T02:41:44;102592.72;;;8.81;37.60
22000;BME280;11164;48.818;2.322;2024-01-27T02:44:09;102588.34;;;8.80;37.72
22000;BME280;11164;48.818;2.322;2024-01-27T02:46:35;102590.91;;;8.81;37.48
22000;BME280;11164;48.818;2.322;2024-01-27T02:49:00;102587.91;;;8.75;37.79
22000;BME280;11164;48.818;2.322;2024-01-27T02:51:25;102592.59;;;8.73;37.78
22000;BME280;11164;48.818;2.322;2024-01-27T02:53:51;102587.63;;;8.68;37.65
22000;BME280;11164;48.818;2.322;2024-01-27T02:56:16;102587.34;;;8.71;37.69
22000;BME280;11164;48.818;2.322;2024-01-27T02:58:42;102594.53;;;8.61;37.74
22000;BME280;11164;48.818;2.322;2024-01-27T03:01:07;102587.94;;;8.44;37.73
22000;BME280;11164;48.818;2.322;2024-01-27T03:03:33;102589.09;;;8.41;38.10
22000;BME280;11164;48.818;2.322;2024-01-27T03:05:58;102587.38;;;8.40;38.26
22000;BME280;11164;48.818;2.322;2024-01-27T03:08:24;102591.19;;;8.38;38.25
22000;BME280;11164;48.818;2.322;2024-01-27T03:10:49;102587.94;;;8.34;38.10
22000;BME280;11164;48.818;2.322;2024-01-27T03:13:15;102590.63;;;8.44;38.33
22000;BME280;11164;48.818;2.322;2024-01-27T03:15:40;102579.03;;;8.43;38.10
22000;BME280;11164;48.818;2.322;2024-01-27T03:18:07;102580.06;;;8.52;37.80
22000;BME280;11164;48.818;2.322;2024-01-27T03:20:33;102584.19;;;8.56;37.88
22000;BME280;11164;48.818;2.322;2024-01-27T03:22:58;102556.06;;;8.30;38.04
22000;BME280;11164;48.818;2.322;2024-01-27T03:25:24;102576.53;;;8.52;37.68
22000;BME280;11164;48.818;2.322;2024-01-27T03:27:51;102575.13;;;8.57;37.57
22000;BME280;11164;48.818;2.322;2024-01-27T03:30:16;102574.50;;;8.44;37.71
22000;BME280;11164;48.818;2.322;2024-01-27T03:32:42;102575.03;;;8.28;38.20
22000;BME280;11164;48.818;2.322;2024-01-27T03:35:07;102574.44;;;8.24;38.11
22000;BME280;11164;48.818;2.322;2024-01-27T03:37:32;102577.31;;;8.33;38.27
22000;BME280;11164;48.818;2.322;2024-01-27T03:39:59;102579.03;;;8.43;38.06
22000;BME280;11164;48.818;2.322;2024-01-27T03:42:24;102574.94;;;8.49;37.93
22000;BME280;11164;48.818;2.322;2024-01-27T03:44:50;102568.81;;;8.37;37.84
22000;BME280;11164;48.818;2.322;2024-01-27T03:47:16;102570.28;;;8.41;38.09
22000;BME280;11164;48.818;2.322;2024-01-27T03:49:42;102562.78;;;8.45;37.93
22000;BME280;11164;48.818;2.322;2024-01-27T03:52:07;102562.66;;;8.47;37.77
22000;BME280;11164;48.818;2.322;2024-01-27T03:54:32;102564.66;;;8.54;37.94
22000;BME280;11164;48.818;2.322;2024-01-27T03:56:58;102564.09;;;8.60;37.86
22000;BME280;11164;48.818;2.322;2024-01-27T03:59:23;102559.56;;;8.61;37.55
22000;BME280;11164;48.818;2.322;2024-01-27T04:01:48;102568.34;;;8.63;37.49
22000;BME280;11164;48.818;2.322;2024-01-27T04:04:14;102564.38;;;8.57;37.62
22000;BME280;11164;48.818;2.322;2024-01-27T04:06:39;102561.78;;;8.46;38.24
22000;BME280;11164;48.818;2.322;2024-01-27T04:09:05;102567.13;;;8.36;38.30
22000;BME280;11164;48.818;2.322;2024-01-27T04:11:34;102564.78;;;8.22;38.26
22000;BME280;11164;48.818;2.322;2024-01-27T04:14:01;102555.31;;;8.18;38.24
22000;BME280;11164;48.818;2.322;2024-01-27T04:16:27;102557.47;;;8.24;38.28
22000;BME280;11164;48.818;2.322;2024-01-27T04:18:52;102556.56;;;8.14;38.21
22000;BME280;11164;48.818;2.322;2024-01-27T04:21:18;102570.22;;;8.01;38.59
22000;BME280;11164;48.818;2.322;2024-01-27T04:23:43;102569.03;;;7.73;38.92
22000;BME280;11164;48.818;2.322;2024-01-27T04:26:08;102566.94;;;7.76;38.87
22000;BME280;11164;48.818;2.322;2024-01-27T04:28:35;102568.19;;;7.72;38.85
22000;BME280;11164;48.818;2.322;2024-01-27T04:31:01;102574.06;;;7.87;38.78
22000;BME280;11164;48.818;2.322;2024-01-27T04:33:26;102570.28;;;7.90;38.55
22000;BME280;11164;48.818;2.322;2024-01-27T04:35:51;102583.31;;;7.94;38.55
22000;BME280;11164;48.818;2.322;2024-01-27T04:38:17;102581.41;;;8.06;38.48
22000;BME280;11164;48.818;2.322;2024-01-27T04:40:42;102583.94;;;7.98;38.29
22000;BME280;11164;48.818;2.322;2024-01-27T04:43:08;102579.84;;;8.03;38.32
22000;BME280;11164;48.818;2.322;2024-01-27T04:45:33;102579.19;;;8.11;38.49
22000;BME280;11164;48.818;2.322;2024-01-27T04:47:58;102589.00;;;8.01;38.38
22000;BME280;11164;48.818;2.322;2024-01-27T04:50:26;102584.91;;;7.97;38.71
22000;BME280;11164;48.818;2.322;2024-01-27T04:52:51;102583.06;;;7.97;38.26
22000;BME280;11164;48.818;2.322;2024-01-27T04:55:16;102591.84;;;7.99;38.27
22000;BME280;11164;48.818;2.322;2024-01-27T04:57:42;102576.13;;;7.95;38.22
22000;BME280;11164;48.818;2.322;2024-01-27T05:00:08;102578.97;;;8.03;38.18
22000;BME280;11164;48.818;2.322;2024-01-27T05:02:40;102573.47;;;8.04;38.30
22000;BME280;11164;48.818;2.322;2024-01-27T05:05:06;102579.66;;;7.95;38.20
22000;BME280;11164;48.818;2.322;2024-01-27T05:07:32;102592.00;;;7.86;38.28
22000;BME280;11164;48.818;2.322;2024-01-27T05:09:57;102592.03;;;7.65;38.87
22000;BME280;11164;48.818;2.322;2024-01-27T05:12:23;102591.09;;;7.55;38.94
22000;BME280;11164;48.818;2.322;2024-01-27T05:14:48;102591.19;;;7.65;38.89
22000;BME280;11164;48.818;2.322;2024-01-27T05:17:13;102593.28;;;7.82;38.36
22000;BME280;11164;48.818;2.322;2024-01-27T05:19:39;102601.03;;;7.97;38.43
22000;BME280;11164;48.818;2.322;2024-01-27T05:22:04;102602.44;;;8.01;38.26
22000;BME280;11164;48.818;2.322;2024-01-27T05:24:29;102605.00;;;8.02;38.66
22000;BME280;11164;48.818;2.322;2024-01-27T05:26:55;102606.78;;;7.92;38.63
22000;BME280;11164;48.818;2.322;2024-01-27T05:29:21;102598.59;;;7.94;38.34
22000;BME280;11164;48.818;2.322;2024-01-27T05:31:46;102591.75;;;7.90;38.45
22000;BME280;11164;48.818;2.322;2024-01-27T05:34:11;102597.63;;;7.95;38.66
22000;BME280;11164;48.818;2.322;2024-01-27T05:36:37;102583.59;;;7.91;38.35
22000;BME280;11164;48.818;2.322;2024-01-27T05:39:02;102593.34;;;7.92;38.67
22000;BME280;11164;48.818;2.322;2024-01-27T05:41:31;102596.63;;;7.96;38.62
22000;BME280;11164;48.818;2.322;2024-01-27T05:43:56;102586.28;;;7.91;38.63
22000;BME280;11164;48.818;2.322;2024-01-27T05:46:23;102592.72;;;7.88;38.78
22000;BME280;11164;48.818;2.322;2024-01-27T05:48:49;102594.25;;;7.81;38.98
22000;BME280;11164;48.818;2.322;2024-01-27T05:51:16;102592.22;;;7.74;38.75
22000;BME280;11164;48.818;2.322;2024-01-27T05:53:41;102595.88;;;7.73;39.16
22000;BME280;11164;48.818;2.322;2024-01-27T05:56:07;102588.50;;;7.65;39.06
22000;BME280;11164;48.818;2.322;2024-01-27T05:58:32;102582.97;;;7.66;39.29
22000;BME280;11164;48.818;2.322;2024-01-27T06:00:57;102576.81;;;7.55;38.91
22000;BME280;11164;48.818;2.322;2024-01-27T06:03:23;102578.25;;;7.59;38.90
22000;BME280;11164;48.818;2.322;2024-01-27T06:05:48;102576.97;;;7.53;39.15
22000;BME280;11164;48.818;2.322;2024-01-27T06:08:13;102581.16;;;7.67;38.80
22000;BME280;11164;48.818;2.322;2024-01-27T06:10:39;102568.06;;;7.74;38.58
22000;BME280;11164;48.818;2.322;2024-01-27T06:13:04;102586.31;;;7.80;38.72
22000;BME280;11164;48.818;2.322;2024-01-27T06:15:30;102581.06;;;7.78;38.94
22000;BME280;11164;48.818;2.322;2024-01-27T06:17:55;102587.91;;;7.82;38.51
22000;BME280;11164;48.818;2.322;2024-01-27T06:20:21;102595.84;;;7.84;38.91
22000;BME280;11164;48.818;2.322;2024-01-27T06:22:46;102595.03;;;7.72;38.64
22000;BME280;11164;48.818;2.322;2024-01-27T06:25:11;102590.31;;;7.64;38.89
22000;BME280;11164;48.818;2.322;2024-01-27T06:27:37;102586.78;;;7.64;39.05
22000;BME280;11164;48.818;2.322;2024-01-27T06:30:07;102584.47;;;7.59;38.84
22000;BME280;11164;48.818;2.322;2024-01-27T06:32:32;102587.16;;;7.59;38.71
22000;BME280;11164;48.818;2.322;2024-01-27T06:34:58;102585.72;;;7.55;38.85
22000;BME280;11164;48.818;2.322;2024-01-27T06:37:23;102578.47;;;7.46;38.81
22000;BME280;11164;48.818;2.322;2024-01-27T06:39:48;102583.69;;;7.47;39.27
22000;BME280;11164;48.818;2.322;2024-01-27T06:42:14;102582.94;;;7.45;39.62
22000;BME280;11164;48.818;2.322;2024-01-27T06:44:39;102582.69;;;7.48;39.22
22000;BME280;11164;48.818;2.322;2024-01-27T06:47:04;102585.31;;;7.39;38.99
22000;BME280;11164;48.818;2.322;2024-01-27T06:49:30;102580.94;;;7.38;39.25
22000;BME280;11164;48.818;2.322;2024-01-27T06:51:55;102587.13;;;7.38;38.97
22000;BME280;11164;48.818;2.322;2024-01-27T06:54:20;102587.25;;;7.37;39.44
22000;BME280;11164;48.818;2.322;2024-01-27T06:56:46;102585.50;;;7.47;39.30
22000;BME280;11164;48.818;2.322;2024-01-27T06:59:11;102588.59;;;7.42;39.41
22000;BME280;11164;48.818;2.322;2024-01-27T07:01:37;102589.56;;;7.41;39.02
22000;BME280;11164;48.818;2.322;2024-01-27T07:04:02;102585.81;;;7.33;39.68
22000;BME280;11164;48.818;2.322;2024-01-27T07:06:28;102582.78;;;7.37;39.27
22000;BME280;11164;48.818;2.322;2024-01-27T07:08:53;102579.41;;;7.24;39.55
22000;BME280;11164;48.818;2.322;2024-01-27T07:11:18;102575.91;;;7.12;39.52
22000;BME280;11164;48.818;2.322;2024-01-27T07:13:44;102559.03;;;7.21;39.48
22000;BME280;11164;48.818;2.322;2024-01-27T07:16:09;102562.19;;;7.26;39.33
22000;BME280;11164;48.818;2.322;2024-01-27T07:18:34;102558.41;;;7.29;39.54
22000;BME280;11164;48.818;2.322;2024-01-27T07:21:01;102569.25;;;7.27;39.60
22000;BME280;11164;48.818;2.322;2024-01-27T07:23:27;102581.56;;;7.30;39.65
22000;BME280;11164;48.818;2.322;2024-01-27T07:25:52;102582.03;;;7.35;39.10
22000;BME280;11164;48.818;2.322;2024-01-27T07:28:18;102580.47;;;7.33;39.61
22000;BME280;11164;48.818;2.322;2024-01-27T07:30:44;102582.03;;;7.35;39.31
22000;BME280;11164;48.818;2.322;2024-01-27T07:33:10;102590.53;;;7.40;39.23
22000;BME280;11164;48.818;2.322;2024-01-27T07:35:35;102595.16;;;7.49;39.38
22000;BME280;11164;48.818;2.322;2024-01-27T07:38:00;102598.31;;;7.55;39.69
22000;BME280;11164;48.818;2.322;2024-01-27T07:40:26;102604.84;;;7.62;39.37
22000;BME280;11164;48.818;2.322;2024-01-27T07:42:51;102608.97;;;7.66;39.27
22000;BME280;11164;48.818;2.322;2024-01-27T07:45:16;102606.63;;;7.73;39.25
22000;BME280;11164;48.818;2.322;2024-01-27T07:47:42;102608.47;;;7.72;39.28
22000;BME280;11164;48.818;2.322;2024-01-27T07:50:07;102608.81;;;7.79;39.39
22000;BME280;11164;48.818;2.322;2024-01-27T07:52:35;102607.41;;;7.84;39.30
22000;BME280;11164;48.818;2.322;2024-01-27T07:55:00;102590.25;;;7.76;39.64
22000;BME280;11164;48.818;2.322;2024-01-27T07:57:25;102597.66;;;7.83;39.67
22000;BME280;11164;48.818;2.322;2024-01-27T07:59:51;102594.22;;;7.93;39.13
22000;BME280;11164;48.818;2.322;2024-01-27T08:02:16;102592.97;;;7.97;39.55
22000;BME280;11164;48.818;2.322;2024-01-27T08:04:41;102590.28;;;7.97;39.11
22000;BME280;11164;48.818;2.322;2024-01-27T08:07:06;102579.97;;;7.81;39.55
22000;BME280;11164;48.818;2.322;2024-01-27T08:09:35;102589.31;;;7.98;39.35
22000;BME280;11164;48.818;2.322;2024-01-27T08:12:00;102602.56;;;7.99;39.36
22000;BME280;11164;48.818;2.322;2024-01-27T08:14:29;102607.81;;;8.01;39.57
22000;BME280;11164;48.818;2.322;2024-01-27T08:16:58;102606.66;;;7.94;39.35
22000;BME280;11164;48.818;2.322;2024-01-27T08:19:24;102602.44;;;8.01;39.23
22000;BME280;11164;48.818;2.322;2024-01-27T08:21:49;102613.91;;;8.03;39.16
22000;BME280;11164;48.818;2.322;2024-01-27T08:24:14;102615.63;;;8.04;39.34
22000;BME280;11164;48.818;2.322;2024-01-27T08:26:40;102611.16;;;8.14;39.19
22000;BME280;11164;48.818;2.322;2024-01-27T08:29:07;102602.13;;;8.15;39.56
22000;BME280;11164;48.818;2.322;2024-01-27T08:31:33;102602.03;;;8.27;38.99
22000;BME280;11164;48.818;2.322;2024-01-27T08:33:58;102594.41;;;8.32;39.17
22000;BME280;11164;48.818;2.322;2024-01-27T08:36:23;102595.00;;;8.35;39.16
22000;BME280;11164;48.818;2.322;2024-01-27T08:38:49;102591.66;;;8.43;39.21
22000;BME280;11164;48.818;2.322;2024-01-27T08:41:14;102606.19;;;8.40;39.18
22000;BME280;11164;48.818;2.322;2024-01-27T08:43:40;102606.91;;;8.42;39.52
22000;BME280;11164;48.818;2.322;2024-01-27T08:46:05;102577.38;;;8.21;39.70
22000;BME280;11164;48.818;2.322;2024-01-27T08:48:33;102603.19;;;8.34;39.43
22000;BME280;11164;48.818;2.322;2024-01-27T08:50:58;102596.78;;;8.56;39.10
22000;BME280;11164;48.818;2.322;2024-01-27T08:53:23;102593.25;;;8.65;39.03
22000;BME280;11164;48.818;2.322;2024-01-27T08:55:49;102595.69;;;8.68;39.00
22000;BME280;11164;48.818;2.322;2024-01-27T08:58:14;102595.00;;;8.76;39.10
22000;BME280;11164;48.818;2.322;2024-01-27T09:00:39;102582.81;;;8.72;38.87
22000;BME280;11164;48.818;2.322;2024-01-27T09:03:05;102595.00;;;8.86;38.93
22000;BME280;11164;48.818;2.322;2024-01-27T09:05:30;102586.97;;;8.95;38.75
22000;BME280;11164;48.818;2.322;2024-01-27T09:07:56;102589.78;;;9.04;38.88
22000;BME280;11164;48.818;2.322;2024-01-27T09:10:21;102585.97;;;8.96;39.16
22000;BME280;11164;48.818;2.322;2024-01-27T09:12:47;102581.03;;;8.92;39.03
22000;BME280;11164;48.818;2.322;2024-01-27T09:15:12;102563.34;;;8.99;38.97
22000;BME280;11164;48.818;2.322;2024-01-27T09:17:37;102576.22;;;8.95;39.02
22000;BME280;11164;48.818;2.322;2024-01-27T09:20:03;102576.59;;;8.81;39.33
22000;BME280;11164;48.818;2.322;2024-01-27T09:22:29;102578.03;;;8.95;39.39
22000;BME280;11164;48.818;2.322;2024-01-27T09:24:54;102575.09;;;9.08;39.12
22000;BME280;11164;48.818;2.322;2024-01-27T09:27:20;102574.66;;;9.22;38.98
22000;BME280;11164;48.818;2.322;2024-01-27T09:29:45;102571.84;;;9.24;39.20
22000;BME280;11164;48.818;2.322;2024-01-27T09:32:11;102571.44;;;9.38;38.51
22000;BME280;11164;48.818;2.322;2024-01-27T09:34:36;102571.44;;;9.38;38.88
22000;BME280;11164;48.818;2.322;2024-01-27T09:37:02;102569.34;;;9.32;39.01
22000;BME280;11164;48.818;2.322;2024-01-27T09:39:28;102557.41;;;9.44;38.70
22000;BME280;11164;48.818;2.322;2024-01-27T09:41:54;102554.56;;;9.65;38.48
22000;BME280;11164;48.818;2.322;2024-01-27T09:44:19;102560.94;;;9.45;38.70
22000;BME280;11164;48.818;2.322;2024-01-27T09:46:45;102562.66;;;9.46;38.87
22000;BME280;11164;48.818;2.322;2024-01-27T09:49:12;102568.44;;;9.61;38.83
22000;BME280;11164;48.818;2.322;2024-01-27T09:51:38;102571.28;;;9.69;38.82
22000;BME280;11164;48.818;2.322;2024-01-27T09:54:04;102573.22;;;9.86;38.44
22000;BME280;11164;48.818;2.322;2024-01-27T09:56:30;102583.50;;;10.10;38.34
22000;BME280;11164;48.818;2.322;2024-01-27T09:58:56;102575.69;;;10.17;38.18
22000;BME280;11164;48.818;2.322;2024-01-27T10:01:24;102565.97;;;10.34;38.37
22000;BME280;11164;48.818;2.322;2024-01-27T10:03:51;102571.94;;;10.38;38.20
22000;BME280;11164;48.818;2.322;2024-01-27T10:06:16;102571.84;;;10.20;38.13
22000;BME280;11164;48.818;2.322;2024-01-27T10:08:51;102590.28;;;10.15;38.46
22000;BME280;11164;48.818;2.322;2024-01-27T10:11:20;102597.25;;;10.27;38.34
22000;BME280;11164;48.818;2.322;2024-01-27T10:13:56;102597.22;;;10.64;37.73
22000;BME280;11164;48.818;2.322;2024-01-27T10:16:23;102590.44;;;10.88;37.59
22000;BME280;11164;48.818;2.322;2024-01-27T10:18:59;102582.63;;;11.03;36.94
22000;BME280;11164;48.818;2.322;2024-01-27T10:21:24;102582.44;;;11.14;37.39
22000;BME280;11164;48.818;2.322;2024-01-27T10:23:51;102581.84;;;10.93;37.81
22000;BME280;11164;48.818;2.322;2024-01-27T10:26:17;102579.81;;;11.22;37.40
22000;BME280;11164;48.818;2.322;2024-01-27T10:28:42;102582.59;;;11.49;36.90
22000;BME280;11164;48.818;2.322;2024-01-27T10:31:16;102594.53;;;11.64;36.26
22000;BME280;11164;48.818;2.322;2024-01-27T10:33:53;102597.63;;;11.51;36.30
22000;BME280;11164;48.818;2.322;2024-01-27T10:36:19;102596.63;;;11.16;37.76
22000;BME280;11164;48.818;2.322;2024-01-27T10:38:45;102588.66;;;10.97;37.83
22000;BME280;11164;48.818;2.322;2024-01-27T10:41:10;102593.66;;;10.92;38.05
22000;BME280;11164;48.818;2.322;2024-01-27T10:43:37;102587.63;;;10.80;38.33
22000;BME280;11164;48.818;2.322;2024-01-27T10:46:06;102586.50;;;11.00;37.92
22000;BME280;11164;48.818;2.322;2024-01-27T10:48:35;102584.59;;;11.29;37.43
22000;BME280;11164;48.818;2.322;2024-01-27T10:51:08;102579.16;;;11.65;37.24
22000;BME280;11164;48.818;2.322;2024-01-27T10:53:35;102584.75;;;11.89;36.81
22000;BME280;11164;48.818;2.322;2024-01-27T10:56:03;102574.25;;;12.12;36.75
22000;BME280;11164;48.818;2.322;2024-01-27T10:58:32;102572.72;;;12.44;36.45
22000;BME280;11164;48.818;2.322;2024-01-27T11:01:01;102559.94;;;12.63;36.18
22000;BME280;11164;48.818;2.322;2024-01-27T11:03:28;102558.25;;;12.62;36.24
22000;BME280;11164;48.818;2.322;2024-01-27T11:05:54;102556.00;;;12.49;36.23
22000;BME280;11164;48.818;2.322;2024-01-27T11:08:20;102550.09;;;12.53;36.17
22000;BME280;11164;48.818;2.322;2024-01-27T11:10:49;102545.16;;;12.49;36.44
22000;BME280;11164;48.818;2.322;2024-01-27T11:13:15;102549.63;;;12.58;36.17
22000;BME280;11164;48.818;2.322;2024-01-27T11:15:53;102542.63;;;12.47;35.38
22000;BME280;11164;48.818;2.322;2024-01-27T11:18:19;102543.69;;;12.54;36.40
22000;BME280;11164;48.818;2.322;2024-01-27T11:20:44;102545.69;;;12.44;36.36
22000;BME280;11164;48.818;2.322;2024-01-27T11:23:11;102547.50;;;12.35;36.77
22000;BME280;11164;48.818;2.322;2024-01-27T11:25:37;102544.22;;;12.58;36.47
22000;BME280;11164;48.818;2.322;2024-01-27T11:28:11;102544.91;;;12.76;35.89
22000;BME280;11164;48.818;2.322;2024-01-27T11:30:38;102536.31;;;12.81;35.76
22000;BME280;11164;48.818;2.322;2024-01-27T11:33:05;102536.91;;;13.01;35.84
22000;BME280;11164;48.818;2.322;2024-01-27T11:35:31;102537.56;;;13.20;35.43
22000;BME280;11164;48.818;2.322;2024-01-27T11:37:56;102543.31;;;13.25;35.16
22000;BME280;11164;48.818;2.322;2024-01-27T11:40:22;102536.88;;;13.09;35.36
22000;BME280;11164;48.818;2.322;2024-01-27T11:43:00;102523.88;;;13.38;34.01
22000;BME280;11164;48.818;2.322;2024-01-27T11:45:26;102516.91;;;13.43;34.94
22000;BME280;11164;48.818;2.322;2024-01-27T11:47:53;102515.66;;;13.79;34.63
22000;BME280;11164;48.818;2.322;2024-01-27T11:50:19;102509.75;;;13.92;34.59
22000;BME280;11164;48.818;2.322;2024-01-27T11:52:46;102508.56;;;13.78;34.96
22000;BME280;11164;48.818;2.322;2024-01-27T11:55:11;102508.91;;;13.58;35.15
22000;BME280;11164;48.818;2.322;2024-01-27T11:57:37;102512.25;;;13.85;34.98
22000;BME280;11164;48.818;2.322;2024-01-27T12:00:02;102494.47;;;13.91;34.73
22000;BME280;11164;48.818;2.322;2024-01-27T12:02:28;102502.47;;;13.67;34.86
22000;BME280;11164;48.818;2.322;2024-01-27T12:04:54;102499.94;;;13.58;34.88
22000;BME280;11164;48.818;2.322;2024-01-27T12:07:19;102490.66;;;13.44;35.17
22000;BME280;11164;48.818;2.322;2024-01-27T12:09:45;102489.13;;;13.49;34.83
22000;BME280;11164;48.818;2.322;2024-01-27T12:12:12;102487.09;;;13.43;34.82
22000;BME280;11164;48.818;2.322;2024-01-27T12:14:40;102477.81;;;13.13;35.09
22000;BME280;11164;48.818;2.322;2024-01-27T12:17:09;102480.00;;;13.09;35.04
22000;BME280;11164;48.818;2.322;2024-01-27T12:19:38;102480.88;;;13.02;35.20
22000;BME280;11164;48.818;2.322;2024-01-27T12:22:05;102485.94;;;13.13;34.83
22000;BME280;11164;48.818;2.322;2024-01-27T12:24:45;102492.88;;;13.32;34.57
22000;BME280;11164;48.818;2.322;2024-01-27T12:27:11;102491.69;;;13.35;34.60
22000;BME280;11164;48.818;2.322;2024-01-27T12:29:36;102481.31;;;12.81;35.17
22000;BME280;11164;48.818;2.322;2024-01-27T12:32:01;102491.66;;;12.77;35.12
22000;BME280;11164;48.818;2.322;2024-01-27T12:34:27;102465.78;;;12.99;34.94
22000;BME280;11164;48.818;2.322;2024-01-27T12:36:52;102453.75;;;13.18;34.44
22000;BME280;11164;48.818;2.322;2024-01-27T12:39:17;102461.34;;;13.47;34.12
22000;BME280;11164;48.818;2.322;2024-01-27T12:41:43;102449.84;;;13.45;33.99
22000;BME280;11164;48.818;2.322;2024-01-27T12:44:08;102449.19;;;13.35;33.94
22000;BME280;11164;48.818;2.322;2024-01-27T12:46:33;102447.31;;;13.36;34.31
22000;BME280;11164;48.818;2.322;2024-01-27T12:48:59;102428.84;;;13.39;34.15
22000;BME280;11164;48.818;2.322;2024-01-27T12:51:24;102431.72;;;13.46;34.04
22000;BME280;11164;48.818;2.322;2024-01-27T12:53:49;102429.00;;;13.54;33.80